• Join FlightAware (Why Join?)
  • Login
  • US Flag 
03:19AM EDT


 

Airport Tracker/Info


-or-


 

Live Flight TrackerFlight Track Log ✈ N1576C ✈ 08-Sep-2013 ✈ KFXE - KISM

Flight Track Log - Related Links

Times and Time Zones

All times are in EDT time to prevent confusion due to time zone crossing. See the N1576C flight status page for this flight to view local times or setup timezone preferences in your user account.

Time Position Orientation Groundspeed Altitude Reporting Facility
EDT Latitude Longitude Course Direction KTS MPH feet Rate Location/Type
11:06AM 27.2861 -80.8156 327° Northwest 100 115 7,500  Level Miami Center
11:07AM 27.3125 -80.8350 327° Northwest 100 115 7,500  Level Miami Center
11:08AM 27.3414 -80.8525 332° Northwest 100 115 7,500 -60 Level Miami Center
11:09AM 27.3681 -80.8675 333° Northwest 100 115 7,400 -60 Descending Miami Center
11:10AM 27.3928 -80.8847 328° Northwest 100 115 7,400  Level Miami Center
11:11AM 27.4192 -80.9019 330° Northwest 100 115 7,500  Climbing Miami Center
11:12AM 27.4439 -80.9144 336° Northwest 95 109 7,500  Level Miami Center
11:13AM 27.4664 -80.9317 326° Northwest 95 109 7,500 -60 Level Miami Center
11:14AM 27.4931 -80.9467 333° Northwest 95 109 7,400 -60 Descending Miami Center
11:15AM 27.5178 -80.9639 328° Northwest 95 109 7,400  Level Miami Center
11:16AM 27.5425 -80.9789 332° Northwest 100 115 7,400  Level Miami Center
11:17AM 27.5692 -80.9939 333° Northwest 100 115 7,400  Level Miami Center
11:18AM 27.5978 -81.0089 335° Northwest 100 115 7,500 60 Climbing Miami Center
11:19AM 27.6222 -81.0286 324° Northwest 100 115 7,600  Climbing Miami Center
11:20AM 27.6469 -81.0458 328° Northwest 95 109 7,500 -60 Descending Miami Center
11:21AM 27.6736 -81.0611 333° Northwest 103 119 7,500 -60 Level Miami Center
11:22AM 27.6983 -81.0736 336° Northwest 103 119 7,400  Descending Miami Center
11:23AM 27.7269 -81.0911 332° Northwest 103 119 7,500  Climbing Miami Center
11:24AM 27.7536 -81.1086 330° Northwest 108 124 7,500  Level Miami Center
11:25AM 27.7803 -81.1258 330° Northwest 108 124 7,500  Level Miami Center
11:26AM 27.8028 -81.1408 329° Northwest 103 119 7,500  Level Miami Center
11:27AM 27.8294 -81.1558 334° Northwest 103 119 7,500 -60 Level Miami Center
11:28AM 27.8561 -81.1733 330° Northwest 98 113 7,400 -180 Descending Miami Center
11:29AM 27.8828 -81.1886 333° Northwest 98 113 7,200 -420 Descending Miami Center
11:30AM 27.9167 -81.2000 343° North 110 127 6,600 -780 Descending Orlando TRACON
11:31AM 27.9333 -81.2167 319° Northwest 118 136 5,800 -1,020 Descending Orlando TRACON
11:32AM 27.9667 -81.2333 336° Northwest 124 143 4,600 -1,200 Descending Orlando TRACON
11:33AM 28.0000 -81.2500 336° Northwest 125 144 3,400 -1,320 Descending Orlando TRACON
11:34AM 28.0333 -81.2667 336° Northwest 123 142 2,000 -900 Descending Orlando TRACON
11:35AM 28.0667 -81.3000 319° Northwest 121 139 1,700 -240 Descending Orlando TRACON
11:36AM 28.0833 -81.3167 319° Northwest 115 132 1,600 -60 Descending Orlando TRACON
11:37AM 28.1167 -81.3333 336° Northwest 110 127 1,600 -60 Level Orlando TRACON
11:38AM 28.1333 -81.3500 319° Northwest 110 127 1,500 -240 Descending Orlando TRACON
11:39AM 28.1667 -81.3500 360° North 111 128 1,200 -300 Descending Orlando TRACON
11:40AM 28.1833 -81.3667 319° Northwest 97 112 1,000 -180 Descending Orlando TRACON
11:41AM 28.2167 -81.3833 336° Northwest 111 128 900 -120 Descending Orlando TRACON
11:42AM 28.2333 -81.4000 319° Northwest 80 92 800 -180 Descending Orlando TRACON
11:43AM 28.2667 -81.4167 336° Northwest 89 102 600 -240 Descending Orlando TRACON
11:45AM 28.2833 -81.4333 327° Northwest  Level FlightAware Approximate